sensor_id;sensor_type;location;lat;lon;timestamp;P1;durP1;ratioP1;P2;durP2;ratioP2
11348;SDS011;5729;43.570;27.826;2023-07-30T00:01:17;7.38;;;2.40;;
11348;SDS011;5729;43.570;27.826;2023-07-30T00:03:42;4.07;;;2.45;;
11348;SDS011;5729;43.570;27.826;2023-07-30T00:06:08;4.53;;;2.63;;
11348;SDS011;5729;43.570;27.826;2023-07-30T00:08:33;3.58;;;2.35;;
11348;SDS011;5729;43.570;27.826;2023-07-30T00:10:59;3.58;;;2.40;;
11348;SDS011;5729;43.570;27.826;2023-07-30T00:13:24;4.82;;;2.10;;
11348;SDS011;5729;43.570;27.826;2023-07-30T00:15:50;3.28;;;2.40;;
11348;SDS011;5729;43.570;27.826;2023-07-30T00:18:16;3.25;;;2.38;;
11348;SDS011;5729;43.570;27.826;2023-07-30T00:20:42;3.80;;;2.35;;
11348;SDS011;5729;43.570;27.826;2023-07-30T00:23:07;4.95;;;2.50;;
11348;SDS011;5729;43.570;27.826;2023-07-30T00:25:33;6.40;;;2.40;;
11348;SDS011;5729;43.570;27.826;2023-07-30T00:27:58;3.05;;;2.47;;
11348;SDS011;5729;43.570;27.826;2023-07-30T00:30:24;5.05;;;2.33;;
11348;SDS011;5729;43.570;27.826;2023-07-30T00:32:50;3.42;;;2.50;;
11348;SDS011;5729;43.570;27.826;2023-07-30T00:35:15;4.30;;;2.45;;
11348;SDS011;5729;43.570;27.826;2023-07-30T00:37:41;2.72;;;2.35;;
11348;SDS011;5729;43.570;27.826;2023-07-30T00:40:06;3.15;;;2.28;;
11348;SDS011;5729;43.570;27.826;2023-07-30T00:42:32;7.57;;;2.30;;
11348;SDS011;5729;43.570;27.826;2023-07-30T00:44:57;3.65;;;2.60;;
11348;SDS011;5729;43.570;27.826;2023-07-30T00:47:23;2.88;;;2.42;;
11348;SDS011;5729;43.570;27.826;2023-07-30T00:49:49;4.30;;;2.50;;
11348;SDS011;5729;43.570;27.826;2023-07-30T00:52:18;6.68;;;2.53;;
11348;SDS011;5729;43.570;27.826;2023-07-30T00:54:45;3.92;;;2.67;;
11348;SDS011;5729;43.570;27.826;2023-07-30T00:57:11;4.28;;;2.50;;
11348;SDS011;5729;43.570;27.826;2023-07-30T00:59:37;4.25;;;2.80;;
11348;SDS011;5729;43.570;27.826;2023-07-30T01:02:03;3.33;;;2.60;;
11348;SDS011;5729;43.570;27.826;2023-07-30T01:04:29;4.13;;;2.42;;
11348;SDS011;5729;43.570;27.826;2023-07-30T01:06:55;3.72;;;2.20;;
11348;SDS011;5729;43.570;27.826;2023-07-30T01:09:21;2.45;;;2.25;;
11348;SDS011;5729;43.570;27.826;2023-07-30T01:11:47;2.97;;;2.30;;
11348;SDS011;5729;43.570;27.826;2023-07-30T01:14:13;2.95;;;2.22;;
11348;SDS011;5729;43.570;27.826;2023-07-30T01:16:40;3.58;;;2.60;;
11348;SDS011;5729;43.570;27.826;2023-07-30T01:19:06;2.67;;;2.47;;
11348;SDS011;5729;43.570;27.826;2023-07-30T01:21:32;3.80;;;2.45;;
11348;SDS011;5729;43.570;27.826;2023-07-30T01:24:00;2.53;;;2.33;;
11348;SDS011;5729;43.570;27.826;2023-07-30T01:26:30;3.53;;;2.35;;
11348;SDS011;5729;43.570;27.826;2023-07-30T01:29:00;3.08;;;2.28;;
11348;SDS011;5729;43.570;27.826;2023-07-30T01:31:28;6.10;;;2.63;;
11348;SDS011;5729;43.570;27.826;2023-07-30T01:33:57;5.40;;;2.83;;
11348;SDS011;5729;43.570;27.826;2023-07-30T01:36:24;3.70;;;2.45;;
11348;SDS011;5729;43.570;27.826;2023-07-30T01:38:52;2.30;;;2.10;;
11348;SDS011;5729;43.570;27.826;2023-07-30T01:41:18;2.95;;;2.47;;
11348;SDS011;5729;43.570;27.826;2023-07-30T01:43:44;2.83;;;2.17;;
11348;SDS011;5729;43.570;27.826;2023-07-30T01:46:09;3.90;;;2.38;;
11348;SDS011;5729;43.570;27.826;2023-07-30T01:48:35;2.83;;;2.30;;
11348;SDS011;5729;43.570;27.826;2023-07-30T01:51:00;6.22;;;2.45;;
11348;SDS011;5729;43.570;27.826;2023-07-30T01:53:26;3.30;;;2.63;;
11348;SDS011;5729;43.570;27.826;2023-07-30T01:55:51;2.58;;;2.15;;
11348;SDS011;5729;43.570;27.826;2023-07-30T01:58:16;5.55;;;2.40;;
11348;SDS011;5729;43.570;27.826;2023-07-30T02:00:42;4.25;;;2.20;;
11348;SDS011;5729;43.570;27.826;2023-07-30T02:03:07;3.28;;;2.70;;
11348;SDS011;5729;43.570;27.826;2023-07-30T02:05:33;3.45;;;2.13;;
11348;SDS011;5729;43.570;27.826;2023-07-30T02:07:58;2.67;;;2.00;;
11348;SDS011;5729;43.570;27.826;2023-07-30T02:10:24;2.95;;;2.30;;
11348;SDS011;5729;43.570;27.826;2023-07-30T02:12:50;2.70;;;2.45;;
11348;SDS011;5729;43.570;27.826;2023-07-30T02:15:16;4.22;;;2.50;;
11348;SDS011;5729;43.570;27.826;2023-07-30T02:17:41;2.55;;;2.35;;
11348;SDS011;5729;43.570;27.826;2023-07-30T02:20:07;5.00;;;2.67;;
11348;SDS011;5729;43.570;27.826;2023-07-30T02:22:34;3.47;;;2.45;;
11348;SDS011;5729;43.570;27.826;2023-07-30T02:24:59;8.13;;;2.80;;
11348;SDS011;5729;43.570;27.826;2023-07-30T02:27:24;2.65;;;2.42;;
11348;SDS011;5729;43.570;27.826;2023-07-30T02:29:50;4.18;;;2.97;;
11348;SDS011;5729;43.570;27.826;2023-07-30T02:32:15;2.58;;;2.38;;
11348;SDS011;5729;43.570;27.826;2023-07-30T02:34:41;2.65;;;2.42;;
11348;SDS011;5729;43.570;27.826;2023-07-30T02:37:06;7.90;;;2.60;;
11348;SDS011;5729;43.570;27.826;2023-07-30T02:39:32;6.28;;;2.15;;
11348;SDS011;5729;43.570;27.826;2023-07-30T02:41:57;3.70;;;2.47;;
11348;SDS011;5729;43.570;27.826;2023-07-30T02:44:23;4.65;;;2.70;;
11348;SDS011;5729;43.570;27.826;2023-07-30T02:46:48;4.43;;;2.58;;
11348;SDS011;5729;43.570;27.826;2023-07-30T02:49:13;3.00;;;2.08;;
11348;SDS011;5729;43.570;27.826;2023-07-30T02:51:39;4.47;;;2.50;;
11348;SDS011;5729;43.570;27.826;2023-07-30T02:54:05;4.80;;;2.42;;
11348;SDS011;5729;43.570;27.826;2023-07-30T02:56:32;5.50;;;2.30;;
11348;SDS011;5729;43.570;27.826;2023-07-30T02:58:58;4.32;;;3.05;;
11348;SDS011;5729;43.570;27.826;2023-07-30T03:01:23;3.72;;;2.45;;
11348;SDS011;5729;43.570;27.826;2023-07-30T03:03:49;4.68;;;2.63;;
11348;SDS011;5729;43.570;27.826;2023-07-30T03:06:14;3.05;;;2.75;;
11348;SDS011;5729;43.570;27.826;2023-07-30T03:08:42;5.60;;;2.50;;
11348;SDS011;5729;43.570;27.826;2023-07-30T03:11:10;5.70;;;2.90;;
11348;SDS011;5729;43.570;27.826;2023-07-30T03:13:35;5.10;;;2.67;;
11348;SDS011;5729;43.570;27.826;2023-07-30T03:16:01;5.90;;;2.70;;
11348;SDS011;5729;43.570;27.826;2023-07-30T03:18:27;2.90;;;2.60;;
11348;SDS011;5729;43.570;27.826;2023-07-30T03:20:57;2.70;;;2.40;;
11348;SDS011;5729;43.570;27.826;2023-07-30T03:23:26;3.42;;;2.65;;
11348;SDS011;5729;43.570;27.826;2023-07-30T03:25:52;4.82;;;2.80;;
11348;SDS011;5729;43.570;27.826;2023-07-30T03:28:17;3.35;;;2.60;;
11348;SDS011;5729;43.570;27.826;2023-07-30T03:30:43;2.80;;;2.50;;
11348;SDS011;5729;43.570;27.826;2023-07-30T03:33:08;3.88;;;2.90;;
11348;SDS011;5729;43.570;27.826;2023-07-30T03:35:34;3.60;;;2.70;;
11348;SDS011;5729;43.570;27.826;2023-07-30T03:37:59;2.58;;;2.38;;
11348;SDS011;5729;43.570;27.826;2023-07-30T03:40:24;3.15;;;2.58;;
11348;SDS011;5729;43.570;27.826;2023-07-30T03:42:50;4.82;;;2.55;;
11348;SDS011;5729;43.570;27.826;2023-07-30T03:45:16;4.60;;;2.78;;
11348;SDS011;5729;43.570;27.826;2023-07-30T03:47:41;8.35;;;2.60;;
11348;SDS011;5729;43.570;27.826;2023-07-30T03:50:07;3.50;;;2.88;;
11348;SDS011;5729;43.570;27.826;2023-07-30T03:52:32;6.47;;;2.70;;
11348;SDS011;5729;43.570;27.826;2023-07-30T03:54:58;4.20;;;2.45;;
11348;SDS011;5729;43.570;27.826;2023-07-30T03:57:23;5.28;;;3.00;;
11348;SDS011;5729;43.570;27.826;2023-07-30T03:59:48;4.80;;;3.00;;
11348;SDS011;5729;43.570;27.826;2023-07-30T04:02:14;2.58;;;2.33;;
11348;SDS011;5729;43.570;27.826;2023-07-30T04:04:41;2.97;;;2.72;;
11348;SDS011;5729;43.570;27.826;2023-07-30T04:07:09;3.60;;;2.42;;
11348;SDS011;5729;43.570;27.826;2023-07-30T04:09:35;2.78;;;2.40;;
11348;SDS011;5729;43.570;27.826;2023-07-30T04:12:01;5.30;;;2.55;;
11348;SDS011;5729;43.570;27.826;2023-07-30T04:14:26;6.15;;;2.80;;
11348;SDS011;5729;43.570;27.826;2023-07-30T04:16:52;4.93;;;2.53;;
11348;SDS011;5729;43.570;27.826;2023-07-30T04:19:17;2.92;;;2.58;;
11348;SDS011;5729;43.570;27.826;2023-07-30T04:21:42;4.85;;;2.72;;
11348;SDS011;5729;43.570;27.826;2023-07-30T04:24:08;10.50;;;3.10;;
11348;SDS011;5729;43.570;27.826;2023-07-30T04:26:33;6.70;;;2.65;;
11348;SDS011;5729;43.570;27.826;2023-07-30T04:28:59;3.38;;;2.20;;
11348;SDS011;5729;43.570;27.826;2023-07-30T04:31:24;4.85;;;2.63;;
11348;SDS011;5729;43.570;27.826;2023-07-30T04:33:50;3.63;;;2.67;;
11348;SDS011;5729;43.570;27.826;2023-07-30T04:36:15;3.20;;;2.80;;
11348;SDS011;5729;43.570;27.826;2023-07-30T04:38:41;9.15;;;3.15;;
11348;SDS011;5729;43.570;27.826;2023-07-30T04:41:06;2.92;;;2.17;;
11348;SDS011;5729;43.570;27.826;2023-07-30T04:43:32;4.05;;;2.53;;
11348;SDS011;5729;43.570;27.826;2023-07-30T04:45:57;2.97;;;2.67;;
11348;SDS011;5729;43.570;27.826;2023-07-30T04:48:22;8.55;;;2.67;;
11348;SDS011;5729;43.570;27.826;2023-07-30T04:50:48;3.22;;;2.63;;
11348;SDS011;5729;43.570;27.826;2023-07-30T04:53:13;4.72;;;2.63;;
11348;SDS011;5729;43.570;27.826;2023-07-30T04:55:39;4.25;;;2.53;;
11348;SDS011;5729;43.570;27.826;2023-07-30T04:58:04;2.67;;;2.30;;
11348;SDS011;5729;43.570;27.826;2023-07-30T05:00:30;5.93;;;2.22;;
11348;SDS011;5729;43.570;27.826;2023-07-30T05:02:55;5.78;;;2.47;;
11348;SDS011;5729;43.570;27.826;2023-07-30T05:05:21;4.10;;;2.58;;
11348;SDS011;5729;43.570;27.826;2023-07-30T05:07:46;5.13;;;2.65;;
11348;SDS011;5729;43.570;27.826;2023-07-30T05:10:11;3.95;;;2.35;;
11348;SDS011;5729;43.570;27.826;2023-07-30T05:12:37;5.43;;;2.95;;
11348;SDS011;5729;43.570;27.826;2023-07-30T05:15:03;4.68;;;2.17;;
11348;SDS011;5729;43.570;27.826;2023-07-30T05:17:28;4.30;;;2.60;;
11348;SDS011;5729;43.570;27.826;2023-07-30T05:19:55;4.18;;;2.45;;
11348;SDS011;5729;43.570;27.826;2023-07-30T05:22:20;3.45;;;2.50;;
11348;SDS011;5729;43.570;27.826;2023-07-30T05:24:46;3.67;;;2.30;;
11348;SDS011;5729;43.570;27.826;2023-07-30T05:27:11;6.30;;;2.28;;
11348;SDS011;5729;43.570;27.826;2023-07-30T05:29:36;5.00;;;2.47;;
11348;SDS011;5729;43.570;27.826;2023-07-30T05:32:02;3.83;;;2.00;;
11348;SDS011;5729;43.570;27.826;2023-07-30T05:34:27;3.53;;;2.47;;
11348;SDS011;5729;43.570;27.826;2023-07-30T05:36:53;3.50;;;2.20;;
11348;SDS011;5729;43.570;27.826;2023-07-30T05:39:18;2.85;;;2.33;;
11348;SDS011;5729;43.570;27.826;2023-07-30T05:41:44;4.63;;;2.47;;
11348;SDS011;5729;43.570;27.826;2023-07-30T05:44:09;2.10;;;1.90;;
11348;SDS011;5729;43.570;27.826;2023-07-30T05:46:35;4.28;;;2.40;;
11348;SDS011;5729;43.570;27.826;2023-07-30T05:49:00;4.93;;;2.45;;
11348;SDS011;5729;43.570;27.826;2023-07-30T05:51:25;5.63;;;2.70;;
11348;SDS011;5729;43.570;27.826;2023-07-30T05:53:51;4.35;;;2.50;;
11348;SDS011;5729;43.570;27.826;2023-07-30T05:56:16;4.15;;;2.47;;
11348;SDS011;5729;43.570;27.826;2023-07-30T05:58:43;7.90;;;2.80;;
11348;SDS011;5729;43.570;27.826;2023-07-30T06:01:09;2.85;;;2.22;;
11348;SDS011;5729;43.570;27.826;2023-07-30T06:03:36;7.85;;;2.60;;
11348;SDS011;5729;43.570;27.826;2023-07-30T06:06:03;2.70;;;2.13;;
11348;SDS011;5729;43.570;27.826;2023-07-30T06:08:28;4.40;;;2.10;;
11348;SDS011;5729;43.570;27.826;2023-07-30T06:10:55;2.53;;;2.03;;
11348;SDS011;5729;43.570;27.826;2023-07-30T06:13:25;3.25;;;2.15;;
11348;SDS011;5729;43.570;27.826;2023-07-30T06:15:50;3.00;;;2.10;;
11348;SDS011;5729;43.570;27.826;2023-07-30T06:18:15;2.55;;;2.10;;
11348;SDS011;5729;43.570;27.826;2023-07-30T06:20:41;3.15;;;2.35;;
11348;SDS011;5729;43.570;27.826;2023-07-30T06:23:06;3.00;;;2.38;;
11348;SDS011;5729;43.570;27.826;2023-07-30T06:25:32;4.93;;;2.78;;
11348;SDS011;5729;43.570;27.826;2023-07-30T06:27:57;3.50;;;2.67;;
11348;SDS011;5729;43.570;27.826;2023-07-30T06:30:23;2.58;;;2.00;;
11348;SDS011;5729;43.570;27.826;2023-07-30T06:32:49;2.22;;;2.00;;
11348;SDS011;5729;43.570;27.826;2023-07-30T06:35:15;4.18;;;2.03;;
11348;SDS011;5729;43.570;27.826;2023-07-30T06:37:40;3.38;;;2.10;;
11348;SDS011;5729;43.570;27.826;2023-07-30T06:40:06;2.42;;;2.22;;
11348;SDS011;5729;43.570;27.826;2023-07-30T06:42:32;5.10;;;2.40;;
11348;SDS011;5729;43.570;27.826;2023-07-30T06:44:58;2.70;;;2.03;;
11348;SDS011;5729;43.570;27.826;2023-07-30T06:47:25;5.03;;;2.50;;
11348;SDS011;5729;43.570;27.826;2023-07-30T06:49:50;2.88;;;1.90;;
11348;SDS011;5729;43.570;27.826;2023-07-30T06:52:16;2.30;;;1.92;;
11348;SDS011;5729;43.570;27.826;2023-07-30T06:54:41;2.78;;;2.03;;
11348;SDS011;5729;43.570;27.826;2023-07-30T06:57:07;3.55;;;2.13;;
11348;SDS011;5729;43.570;27.826;2023-07-30T06:59:33;2.20;;;2.00;;
11348;SDS011;5729;43.570;27.826;2023-07-30T07:01:59;5.68;;;2.20;;
11348;SDS011;5729;43.570;27.826;2023-07-30T07:04:24;2.22;;;2.03;;
11348;SDS011;5729;43.570;27.826;2023-07-30T07:06:51;4.13;;;1.92;;
11348;SDS011;5729;43.570;27.826;2023-07-30T07:09:16;7.53;;;2.20;;
11348;SDS011;5729;43.570;27.826;2023-07-30T07:11:42;15.70;;;3.08;;
11348;SDS011;5729;43.570;27.826;2023-07-30T07:14:08;6.05;;;2.30;;
11348;SDS011;5729;43.570;27.826;2023-07-30T07:16:33;3.53;;;2.10;;
11348;SDS011;5729;43.570;27.826;2023-07-30T07:18:59;6.82;;;2.22;;
11348;SDS011;5729;43.570;27.826;2023-07-30T07:21:24;5.40;;;2.30;;
11348;SDS011;5729;43.570;27.826;2023-07-30T07:23:51;2.85;;;2.20;;
11348;SDS011;5729;43.570;27.826;2023-07-30T07:26:16;3.88;;;2.20;;
11348;SDS011;5729;43.570;27.826;2023-07-30T07:28:42;2.10;;;1.90;;
11348;SDS011;5729;43.570;27.826;2023-07-30T07:31:07;5.78;;;2.97;;
11348;SDS011;5729;43.570;27.826;2023-07-30T07:33:33;4.40;;;2.20;;
11348;SDS011;5729;43.570;27.826;2023-07-30T07:36:05;3.95;;;2.40;;
11348;SDS011;5729;43.570;27.826;2023-07-30T07:38:32;5.68;;;2.40;;
11348;SDS011;5729;43.570;27.826;2023-07-30T07:40:58;2.83;;;1.85;;
11348;SDS011;5729;43.570;27.826;2023-07-30T07:43:24;4.95;;;2.67;;
11348;SDS011;5729;43.570;27.826;2023-07-30T07:45:49;5.93;;;2.25;;
11348;SDS011;5729;43.570;27.826;2023-07-30T07:48:15;4.75;;;2.28;;
11348;SDS011;5729;43.570;27.826;2023-07-30T07:50:40;4.45;;;2.00;;
11348;SDS011;5729;43.570;27.826;2023-07-30T07:53:05;4.82;;;2.60;;
11348;SDS011;5729;43.570;27.826;2023-07-30T07:55:31;4.55;;;2.50;;
11348;SDS011;5729;43.570;27.826;2023-07-30T07:57:57;4.00;;;1.80;;
11348;SDS011;5729;43.570;27.826;2023-07-30T08:00:23;2.20;;;2.00;;
11348;SDS011;5729;43.570;27.826;2023-07-30T08:02:48;2.55;;;2.10;;
11348;SDS011;5729;43.570;27.826;2023-07-30T08:05:14;9.50;;;2.55;;
11348;SDS011;5729;43.570;27.826;2023-07-30T08:07:39;2.42;;;2.00;;
11348;SDS011;5729;43.570;27.826;2023-07-30T08:10:05;4.20;;;2.25;;
11348;SDS011;5729;43.570;27.826;2023-07-30T08:12:32;2.88;;;1.80;;
11348;SDS011;5729;43.570;27.826;2023-07-30T08:14:58;2.25;;;1.77;;
11348;SDS011;5729;43.570;27.826;2023-07-30T08:17:24;6.13;;;2.03;;
11348;SDS011;5729;43.570;27.826;2023-07-30T08:19:50;3.03;;;2.22;;
11348;SDS011;5729;43.570;27.826;2023-07-30T08:22:17;5.45;;;1.85;;
11348;SDS011;5729;43.570;27.826;2023-07-30T08:24:42;2.45;;;1.88;;
11348;SDS011;5729;43.570;27.826;2023-07-30T08:27:07;5.53;;;2.35;;
11348;SDS011;5729;43.570;27.826;2023-07-30T08:29:33;6.03;;;2.40;;
11348;SDS011;5729;43.570;27.826;2023-07-30T08:31:59;3.15;;;2.17;;
11348;SDS011;5729;43.570;27.826;2023-07-30T08:34:24;2.78;;;1.73;;
11348;SDS011;5729;43.570;27.826;2023-07-30T08:36:50;2.33;;;2.13;;
11348;SDS011;5729;43.570;27.826;2023-07-30T08:39:15;3.35;;;1.73;;
11348;SDS011;5729;43.570;27.826;2023-07-30T08:41:41;2.00;;;1.90;;
11348;SDS011;5729;43.570;27.826;2023-07-30T08:44:06;3.03;;;2.30;;
11348;SDS011;5729;43.570;27.826;2023-07-30T08:46:32;2.35;;;2.15;;
11348;SDS011;5729;43.570;27.826;2023-07-30T08:48:57;2.10;;;1.90;;
11348;SDS011;5729;43.570;27.826;2023-07-30T08:51:23;1.83;;;1.70;;
11348;SDS011;5729;43.570;27.826;2023-07-30T08:53:51;3.03;;;2.08;;
11348;SDS011;5729;43.570;27.826;2023-07-30T08:56:17;2.50;;;2.25;;
11348;SDS011;5729;43.570;27.826;2023-07-30T08:58:43;2.30;;;2.10;;
11348;SDS011;5729;43.570;27.826;2023-07-30T09:01:11;2.22;;;2.00;;
11348;SDS011;5729;43.570;27.826;2023-07-30T09:03:38;2.53;;;2.17;;
11348;SDS011;5729;43.570;27.826;2023-07-30T09:06:04;3.58;;;2.00;;
11348;SDS011;5729;43.570;27.826;2023-07-30T09:08:30;4.80;;;2.20;;
11348;SDS011;5729;43.570;27.826;2023-07-30T09:10:57;3.33;;;2.05;;
11348;SDS011;5729;43.570;27.826;2023-07-30T09:13:34;2.13;;;1.98;;
11348;SDS011;5729;43.570;27.826;2023-07-30T09:16:11;2.13;;;1.90;;
11348;SDS011;5729;43.570;27.826;2023-07-30T09:21:07;2.35;;;2.00;;
11348;SDS011;5729;43.570;27.826;2023-07-30T09:23:33;4.65;;;1.98;;
11348;SDS011;5729;43.570;27.826;2023-07-30T09:26:04;8.80;;;2.15;;
11348;SDS011;5729;43.570;27.826;2023-07-30T09:28:32;9.32;;;3.10;;
11348;SDS011;5729;43.570;27.826;2023-07-30T09:31:01;2.60;;;2.38;;
11348;SDS011;5729;43.570;27.826;2023-07-30T09:33:28;2.92;;;1.92;;
11348;SDS011;5729;43.570;27.826;2023-07-30T09:35:53;2.85;;;1.88;;
11348;SDS011;5729;43.570;27.826;2023-07-30T09:38:20;4.13;;;1.90;;
11348;SDS011;5729;43.570;27.826;2023-07-30T09:40:46;4.43;;;2.13;;
11348;SDS011;5729;43.570;27.826;2023-07-30T09:43:14;1.90;;;1.80;;
11348;SDS011;5729;43.570;27.826;2023-07-30T09:45:43;2.92;;;1.88;;
11348;SDS011;5729;43.570;27.826;2023-07-30T09:48:10;3.95;;;2.20;;
11348;SDS011;5729;43.570;27.826;2023-07-30T09:50:36;3.33;;;1.83;;
11348;SDS011;5729;43.570;27.826;2023-07-30T09:53:02;3.28;;;2.40;;
11348;SDS011;5729;43.570;27.826;2023-07-30T09:55:28;1.80;;;1.70;;
11348;SDS011;5729;43.570;27.826;2023-07-30T09:57:54;2.85;;;1.70;;
11348;SDS011;5729;43.570;27.826;2023-07-30T10:00:20;2.35;;;2.05;;
11348;SDS011;5729;43.570;27.826;2023-07-30T10:02:46;2.75;;;1.90;;
11348;SDS011;5729;43.570;27.826;2023-07-30T10:05:17;2.30;;;2.10;;
11348;SDS011;5729;43.570;27.826;2023-07-30T10:07:47;2.60;;;2.00;;
11348;SDS011;5729;43.570;27.826;2023-07-30T10:10:18;3.50;;;2.10;;
11348;SDS011;5729;43.570;27.826;2023-07-30T10:12:45;2.40;;;2.20;;
11348;SDS011;5729;43.570;27.826;2023-07-30T10:15:12;1.98;;;1.88;;
11348;SDS011;5729;43.570;27.826;2023-07-30T10:17:38;3.65;;;2.10;;
11348;SDS011;5729;43.570;27.826;2023-07-30T10:22:52;3.25;;;1.90;;
11348;SDS011;5729;43.570;27.826;2023-07-30T10:25:26;1.95;;;1.60;;
11348;SDS011;5729;43.570;27.826;2023-07-30T10:27:52;4.30;;;2.00;;
11348;SDS011;5729;43.570;27.826;2023-07-30T10:30:18;3.72;;;2.42;;
11348;SDS011;5729;43.570;27.826;2023-07-30T10:40:39;3.53;;;2.10;;
11348;SDS011;5729;43.570;27.826;2023-07-30T10:43:14;2.03;;;1.83;;
11348;SDS011;5729;43.570;27.826;2023-07-30T10:45:49;1.70;;;1.60;;
11348;SDS011;5729;43.570;27.826;2023-07-30T10:48:16;2.08;;;1.80;;
11348;SDS011;5729;43.570;27.826;2023-07-30T10:50:54;3.15;;;2.85;;
11348;SDS011;5729;43.570;27.826;2023-07-30T10:53:19;4.25;;;2.10;;
11348;SDS011;5729;43.570;27.826;2023-07-30T10:55:45;4.00;;;2.30;;
11348;SDS011;5729;43.570;27.826;2023-07-30T10:58:10;2.88;;;2.00;;
11348;SDS011;5729;43.570;27.826;2023-07-30T11:00:36;3.00;;;2.40;;
11348;SDS011;5729;43.570;27.826;2023-07-30T11:03:02;4.13;;;2.20;;
11348;SDS011;5729;43.570;27.826;2023-07-30T11:05:28;10.23;;;2.30;;
11348;SDS011;5729;43.570;27.826;2023-07-30T11:07:54;5.68;;;2.00;;
11348;SDS011;5729;43.570;27.826;2023-07-30T11:10:21;3.30;;;1.88;;
11348;SDS011;5729;43.570;27.826;2023-07-30T11:12:48;2.72;;;1.70;;
11348;SDS011;5729;43.570;27.826;2023-07-30T11:15:15;6.22;;;2.13;;
11348;SDS011;5729;43.570;27.826;2023-07-30T11:17:40;2.45;;;2.15;;
11348;SDS011;5729;43.570;27.826;2023-07-30T11:20:06;2.75;;;2.08;;
11348;SDS011;5729;43.570;27.826;2023-07-30T11:22:35;2.50;;;2.10;;
11348;SDS011;5729;43.570;27.826;2023-07-30T11:25:01;2.15;;;1.70;;
11348;SDS011;5729;43.570;27.826;2023-07-30T11:27:44;2.08;;;1.88;;
11348;SDS011;5729;43.570;27.826;2023-07-30T11:30:10;3.42;;;2.03;;
11348;SDS011;5729;43.570;27.826;2023-07-30T11:32:35;7.43;;;2.40;;
11348;SDS011;5729;43.570;27.826;2023-07-30T11:35:01;1.98;;;1.80;;
11348;SDS011;5729;43.570;27.826;2023-07-30T11:37:27;4.00;;;2.00;;
11348;SDS011;5729;43.570;27.826;2023-07-30T11:39:53;2.38;;;2.00;;
11348;SDS011;5729;43.570;27.826;2023-07-30T11:42:19;2.03;;;1.70;;
11348;SDS011;5729;43.570;27.826;2023-07-30T11:44:44;2.75;;;1.83;;
11348;SDS011;5729;43.570;27.826;2023-07-30T11:47:10;6.95;;;2.28;;
11348;SDS011;5729;43.570;27.826;2023-07-30T11:49:36;2.85;;;1.70;;
11348;SDS011;5729;43.570;27.826;2023-07-30T11:52:08;3.63;;;1.70;;
11348;SDS011;5729;43.570;27.826;2023-07-30T11:54:35;2.80;;;2.00;;
11348;SDS011;5729;43.570;27.826;2023-07-30T11:57:01;3.20;;;1.83;;
11348;SDS011;5729;43.570;27.826;2023-07-30T11:59:26;5.72;;;1.80;;
11348;SDS011;5729;43.570;27.826;2023-07-30T12:01:51;4.55;;;2.55;;
11348;SDS011;5729;43.570;27.826;2023-07-30T12:04:17;3.42;;;2.10;;
11348;SDS011;5729;43.570;27.826;2023-07-30T12:06:43;5.30;;;1.95;;
11348;SDS011;5729;43.570;27.826;2023-07-30T12:09:10;4.03;;;2.25;;
11348;SDS011;5729;43.570;27.826;2023-07-30T12:11:47;3.75;;;1.80;;
11348;SDS011;5729;43.570;27.826;2023-07-30T12:14:25;3.05;;;1.70;;
11348;SDS011;5729;43.570;27.826;2023-07-30T12:16:56;7.30;;;2.20;;
11348;SDS011;5729;43.570;27.826;2023-07-30T12:19:22;2.85;;;1.58;;
11348;SDS011;5729;43.570;27.826;2023-07-30T12:21:47;3.35;;;1.90;;
11348;SDS011;5729;43.570;27.826;2023-07-30T12:24:12;4.70;;;1.90;;
11348;SDS011;5729;43.570;27.826;2023-07-30T12:26:38;2.03;;;1.83;;
11348;SDS011;5729;43.570;27.826;2023-07-30T12:29:03;4.47;;;1.75;;
11348;SDS011;5729;43.570;27.826;2023-07-30T12:31:29;3.05;;;1.90;;
11348;SDS011;5729;43.570;27.826;2023-07-30T12:33:54;4.10;;;2.20;;
11348;SDS011;5729;43.570;27.826;2023-07-30T12:36:20;2.25;;;1.70;;
11348;SDS011;5729;43.570;27.826;2023-07-30T12:38:45;2.05;;;1.77;;
11348;SDS011;5729;43.570;27.826;2023-07-30T12:41:11;1.80;;;1.70;;
11348;SDS011;5729;43.570;27.826;2023-07-30T12:43:36;6.57;;;2.00;;
11348;SDS011;5729;43.570;27.826;2023-07-30T12:46:02;3.92;;;1.90;;
11348;SDS011;5729;43.570;27.826;2023-07-30T12:48:27;1.85;;;1.75;;
11348;SDS011;5729;43.570;27.826;2023-07-30T12:50:52;3.00;;;1.60;;
11348;SDS011;5729;43.570;27.826;2023-07-30T12:53:18;1.80;;;1.45;;
11348;SDS011;5729;43.570;27.826;2023-07-30T12:55:44;3.88;;;1.98;;
11348;SDS011;5729;43.570;27.826;2023-07-30T12:58:09;2.03;;;1.60;;
11348;SDS011;5729;43.570;27.826;2023-07-30T13:00:35;2.55;;;1.73;;
11348;SDS011;5729;43.570;27.826;2023-07-30T13:03:00;4.35;;;1.73;;
11348;SDS011;5729;43.570;27.826;2023-07-30T13:05:27;1.67;;;1.58;;
11348;SDS011;5729;43.570;27.826;2023-07-30T13:07:52;1.90;;;1.75;;
11348;SDS011;5729;43.570;27.826;2023-07-30T13:10:18;2.67;;;1.73;;
11348;SDS011;5729;43.570;27.826;2023-07-30T13:12:44;4.00;;;1.75;;
11348;SDS011;5729;43.570;27.826;2023-07-30T13:15:09;2.90;;;1.67;;
11348;SDS011;5729;43.570;27.826;2023-07-30T13:17:35;1.85;;;1.60;;
11348;SDS011;5729;43.570;27.826;2023-07-30T13:20:01;2.30;;;1.80;;
11348;SDS011;5729;43.570;27.826;2023-07-30T13:22:26;3.83;;;2.10;;
11348;SDS011;5729;43.570;27.826;2023-07-30T13:24:52;2.33;;;1.77;;
11348;SDS011;5729;43.570;27.826;2023-07-30T13:27:17;1.52;;;1.40;;
11348;SDS011;5729;43.570;27.826;2023-07-30T13:29:43;3.45;;;2.00;;
11348;SDS011;5729;43.570;27.826;2023-07-30T13:32:09;4.13;;;1.67;;
11348;SDS011;5729;43.570;27.826;2023-07-30T13:34:34;3.15;;;1.60;;
11348;SDS011;5729;43.570;27.826;2023-07-30T13:37:00;9.38;;;2.20;;
11348;SDS011;5729;43.570;27.826;2023-07-30T13:39:25;3.58;;;1.63;;
11348;SDS011;5729;43.570;27.826;2023-07-30T13:41:51;4.10;;;1.50;;
11348;SDS011;5729;43.570;27.826;2023-07-30T13:44:16;4.50;;;1.88;;
11348;SDS011;5729;43.570;27.826;2023-07-30T13:46:42;2.00;;;1.80;;
11348;SDS011;5729;43.570;27.826;2023-07-30T13:49:07;1.92;;;1.60;;
11348;SDS011;5729;43.570;27.826;2023-07-30T13:51:33;2.50;;;1.30;;
11348;SDS011;5729;43.570;27.826;2023-07-30T13:53:58;1.98;;;1.63;;
11348;SDS011;5729;43.570;27.826;2023-07-30T13:56:25;6.43;;;1.73;;
11348;SDS011;5729;43.570;27.826;2023-07-30T13:58:52;2.38;;;1.48;;
11348;SDS011;5729;43.570;27.826;2023-07-30T14:01:17;5.20;;;1.90;;
11348;SDS011;5729;43.570;27.826;2023-07-30T14:03:43;2.35;;;1.52;;
11348;SDS011;5729;43.570;27.826;2023-07-30T14:06:09;3.63;;;1.50;;
11348;SDS011;5729;43.570;27.826;2023-07-30T14:08:34;8.18;;;1.88;;
11348;SDS011;5729;43.570;27.826;2023-07-30T14:11:00;2.42;;;1.70;;
11348;SDS011;5729;43.570;27.826;2023-07-30T14:13:26;3.20;;;1.40;;
11348;SDS011;5729;43.570;27.826;2023-07-30T14:15:51;2.88;;;1.50;;
11348;SDS011;5729;43.570;27.826;2023-07-30T14:18:17;4.40;;;1.70;;
11348;SDS011;5729;43.570;27.826;2023-07-30T14:20:42;1.90;;;1.80;;
11348;SDS011;5729;43.570;27.826;2023-07-30T14:23:07;1.83;;;1.70;;
11348;SDS011;5729;43.570;27.826;2023-07-30T14:25:33;2.55;;;1.60;;
11348;SDS011;5729;43.570;27.826;2023-07-30T14:27:58;1.90;;;1.73;;
11348;SDS011;5729;43.570;27.826;2023-07-30T14:30:24;2.55;;;1.40;;
11348;SDS011;5729;43.570;27.826;2023-07-30T14:32:49;2.47;;;1.70;;
11348;SDS011;5729;43.570;27.826;2023-07-30T14:35:15;3.53;;;1.70;;
11348;SDS011;5729;43.570;27.826;2023-07-30T14:37:40;2.97;;;1.60;;
11348;SDS011;5729;43.570;27.826;2023-07-30T14:40:06;4.20;;;1.70;;
11348;SDS011;5729;43.570;27.826;2023-07-30T14:42:32;3.40;;;1.85;;
11348;SDS011;5729;43.570;27.826;2023-07-30T14:44:57;2.40;;;1.60;;
11348;SDS011;5729;43.570;27.826;2023-07-30T14:47:22;3.17;;;1.52;;
11348;SDS011;5729;43.570;27.826;2023-07-30T14:49:48;2.45;;;1.60;;
11348;SDS011;5729;43.570;27.826;2023-07-30T14:52:16;4.50;;;2.00;;
11348;SDS011;5729;43.570;27.826;2023-07-30T14:54:43;1.90;;;1.75;;